Time;durP1;ratioP1;P1;durP2;ratioP2;P2;SDS_P1;SDS_P2;PMS_P1;PMS_P2;Temp;Humidity;BMP_temperature;BMP_pressure;BME280_temperature;BME280_humidity;BME280_pressure;Samples;Min_cycle;Max_cycle;Signal;HPM_P1;HPM_P2
2022/08/11 00:02:33;;;;;;;11.13;3.28;;;22.90;84.60;;;;;;5140479;27;20583;-63
2022/08/11 00:05:11;;;;;;;4.40;3.00;;;22.90;84.60;;;;;;5141592;27;20054;-63
2022/08/11 00:07:53;;;;;;;7.78;3.08;;;22.80;84.60;;;;;;5152237;27;20037;-63
2022/08/11 00:10:28;;;;;;;5.53;3.63;;;22.80;84.80;;;;;;5144708;27;20397;-63
2022/08/11 00:12:55;;;;;;;7.68;3.35;;;22.80;84.70;;;;;;5154079;27;20037;-63
2022/08/11 00:15:23;;;;;;;6.55;3.78;;;22.80;85.30;;;;;;5154527;27;20022;-63
2022/08/11 00:17:55;;;;;;;7.47;3.55;;;22.70;84.70;;;;;;5153460;27;20110;-63
2022/08/11 00:20:22;;;;;;;6.93;3.20;;;22.70;84.90;;;;;;5154088;27;20023;-63
2022/08/11 00:22:49;;;;;;;7.38;3.10;;;22.70;85.70;;;;;;5134243;27;20027;-63
2022/08/11 00:25:20;;;;;;;7.78;3.15;;;22.70;85.10;;;;;;5146788;27;20038;-63
2022/08/11 00:27:47;;;;;;;5.60;3.17;;;22.60;85.00;;;;;;5154166;27;20526;-63
2022/08/11 00:30:14;;;;;;;6.85;3.00;;;22.60;84.90;;;;;;5139413;27;20068;-62
2022/08/11 00:32:42;;;;;;;6.93;3.45;;;22.60;84.90;;;;;;5154071;27;20039;-62
2022/08/11 00:35:14;;;;;;;5.45;3.10;;;22.60;85.00;;;;;;5149899;27;20034;-63
2022/08/11 00:37:46;;;;;;;4.95;3.00;;;22.60;85.00;;;;;;5152961;27;20420;-62
2022/08/11 00:40:24;;;;;;;8.07;3.53;;;22.50;85.10;;;;;;5149720;27;20100;-62
2022/08/11 00:43:13;;;;;;;11.63;3.35;;;22.50;85.30;;;;;;5145542;27;20439;-62
2022/08/11 00:45:45;;;;;;;7.75;3.08;;;22.50;85.50;;;;;;5104923;27;20046;-62
2022/08/11 00:48:13;;;;;;;7.50;3.30;;;22.50;85.80;;;;;;5145851;27;20034;-63
2022/08/11 00:51:19;;;;;;;6.10;3.40;;;22.40;86.00;;;;;;5152058;27;20087;-62
2022/08/11 00:54:22;;;;;;;8.93;3.20;;;22.40;86.00;;;;;;5133594;27;20096;-62
2022/08/11 00:57:14;;;;;;;6.45;3.42;;;22.40;86.10;;;;;;5133857;27;20052;-63
2022/08/11 01:00:01;;;;;;;9.27;3.58;;;22.30;86.00;;;;;;5146290;27;20027;-62
2022/08/11 01:02:51;;;;;;;9.52;3.80;;;22.30;86.10;;;;;;5133512;27;20070;-63
2022/08/11 01:05:37;;;;;;;5.20;3.95;;;22.30;86.00;;;;;;5143386;27;20052;-62
2022/08/11 01:08:39;;;;;;;7.07;3.70;;;22.30;86.00;;;;;;5144741;27;20023;-63
2022/08/11 01:11:45;;;;;;;7.07;3.50;;;22.20;86.00;;;;;;5154123;27;20027;-63
2022/08/11 01:14:37;;;;;;;7.10;3.53;;;22.20;86.00;;;;;;5133407;27;20032;-62
2022/08/11 01:17:08;;;;;;;6.00;3.40;;;22.10;86.00;;;;;;5141901;27;20027;-63
2022/08/11 01:19:54;;;;;;;8.15;3.88;;;22.20;86.20;;;;;;5151047;27;20642;-62
2022/08/11 01:22:35;;;;;;;8.52;3.40;;;22.10;86.20;;;;;;5133514;27;20479;-62
2022/08/11 01:25:19;;;;;;;7.50;3.30;;;22.10;86.10;;;;;;5141304;27;20050;-62
2022/08/11 01:27:57;;;;;;;7.45;3.45;;;22.10;86.10;;;;;;5139218;27;20454;-62
2022/08/11 01:30:45;;;;;;;11.20;4.03;;;22.10;86.30;;;;;;5142045;27;20019;-62
2022/08/11 01:33:48;;;;;;;6.80;4.13;;;22.10;86.70;;;;;;5141586;27;20034;-62
2022/08/11 01:36:36;;;;;;;6.23;3.30;;;22.00;86.80;;;;;;5146846;27;20074;-62
2022/08/11 01:39:40;;;;;;;8.13;3.80;;;22.00;86.80;;;;;;5151664;27;20026;-62
2022/08/11 01:45:38;;;;;;;9.00;3.35;;;21.90;87.00;;;;;;5155849;27;20058;-62
2022/08/11 01:48:13;;;;;;;5.68;3.63;;;21.90;87.20;;;;;;5146070;27;20045;-62
2022/08/11 01:50:56;;;;;;;8.70;4.18;;;21.90;87.60;;;;;;5144257;27;20107;-63
2022/08/11 01:53:41;;;;;;;8.98;4.10;;;21.90;87.90;;;;;;5155911;27;20039;-62
2022/08/11 01:56:30;;;;;;;8.95;4.32;;;21.80;88.00;;;;;;5136249;27;20054;-62
2022/08/11 01:59:19;;;;;;;12.07;4.85;;;21.80;88.40;;;;;;5150210;27;20431;-62
2022/08/11 02:02:20;;;;;;;6.50;4.68;;;21.80;88.60;;;;;;5152247;27;20386;-63
2022/08/11 02:05:33;;;;;;;8.68;4.25;;;21.70;88.70;;;;;;5157180;27;20035;-62
2022/08/11 02:08:08;;;;;;;11.45;4.43;;;21.80;89.00;;;;;;5071888;28;20033;-62
2022/08/11 02:13:57;;;;;;;11.88;4.70;;;21.70;89.30;;;;;;5155421;27;20035;-62
2022/08/11 02:16:49;;;;;;;8.38;4.93;;;21.70;89.40;;;;;;5150705;27;20050;-63
2022/08/11 02:25:45;;;;;;;7.05;4.70;;;21.60;90.10;;;;;;5141386;27;20046;-62
2022/08/11 02:28:36;;;;;;;8.73;5.03;;;21.60;90.20;;;;;;5136032;27;20031;-62
2022/08/11 02:34:14;;;;;;;11.20;4.60;;;21.60;90.30;;;;;;5145239;27;20035;-62
2022/08/11 02:36:43;;;;;;;;;;;21.50;90.20;;;;;;5143979;27;20026;-62
2022/08/11 02:39:16;;;;;;;7.05;4.30;;;21.50;90.00;;;;;;5146419;27;20020;-62
2022/08/11 02:42:22;;;;;;;9.57;4.82;;;21.50;90.00;;;;;;5156516;27;20022;-62
2022/08/11 02:45:06;;;;;;;8.13;4.68;;;21.40;90.00;;;;;;5135848;27;20061;-62
2022/08/11 02:49:52;;;;;;;10.02;4.93;;;21.40;90.00;;;;;;5152431;27;20124;-62
2022/08/11 02:50:38;;;;;;;15.82;5.90;;;21.30;90.10;;;;;;5154484;27;20095;-62
2022/08/11 02:53:39;;;;;;;8.70;5.00;;;21.30;90.10;;;;;;5144170;27;20107;-62
2022/08/11 02:56:37;;;;;;;9.68;5.70;;;21.30;90.20;;;;;;5136485;27;20035;-62
2022/08/11 03:02:39;;;;;;;13.77;5.82;;;21.20;90.30;;;;;;5142327;27;20409;-62
2022/08/11 03:05:19;;;;;;;16.77;5.30;;;21.20;90.30;;;;;;5137066;27;20463;-62
2022/08/11 03:08:22;;;;;;;17.73;5.97;;;21.20;90.20;;;;;;5149026;27;20030;-62
2022/08/11 03:17:03;;;;;;;11.18;6.30;;;21.10;90.00;;;;;;5143913;27;20054;-62
2022/08/11 03:19:58;;;;;;;9.63;6.28;;;21.10;90.00;;;;;;5140927;27;20053;-62
2022/08/11 03:22:29;;;;;;;13.00;6.25;;;21.00;90.00;;;;;;5155116;27;20023;-63
2022/08/11 03:25:23;;;;;;;18.42;6.22;;;21.00;90.00;;;;;;5142934;27;20045;-62
2022/08/11 03:28:10;;;;;;;7.80;5.78;;;20.90;90.00;;;;;;5153113;27;20526;-62
2022/08/11 03:30:42;;;;;;;13.38;6.53;;;20.90;90.00;;;;;;5143427;27;20054;-62
2022/08/11 03:36:33;;;;;;;11.98;6.20;;;20.80;90.00;;;;;;5150370;27;20051;-62
2022/08/11 03:39:02;;;;;;;9.65;6.10;;;20.90;90.00;;;;;;5136011;27;20389;-62
2022/08/11 03:41:44;;;;;;;12.68;6.88;;;20.80;90.00;;;;;;5143756;27;20479;-62
2022/08/11 03:44:15;;;;;;;8.65;5.85;;;20.80;90.10;;;;;;5141184;27;20099;-62
2022/08/11 03:47:14;;;;;;;12.30;6.07;;;20.80;90.20;;;;;;5155027;27;20396;-62
2022/08/11 03:50:08;;;;;;;11.82;6.10;;;20.80;90.30;;;;;;5144628;27;20031;-62
2022/08/11 03:53:15;;;;;;;20.38;6.82;;;20.70;90.30;;;;;;5142201;27;20042;-62
2022/08/11 03:56:03;;;;;;;9.35;5.80;;;20.70;90.40;;;;;;5099932;27;20382;-62
2022/08/11 03:59:07;;;;;;;13.52;7.18;;;20.70;90.60;;;;;;5154064;27;20106;-63
2022/08/11 04:02:04;;;;;;;10.65;6.47;;;20.70;90.80;;;;;;5150374;27;20026;-62
2022/08/11 04:04:52;;;;;;;14.13;6.97;;;20.70;91.30;;;;;;5151709;27;20079;-62
2022/08/11 04:07:30;;;;;;;10.05;6.28;;;20.70;91.20;;;;;;5151573;27;20030;-62
2022/08/11 04:10:32;;;;;;;12.82;7.25;;;20.70;91.30;;;;;;5153190;27;20050;-62
2022/08/11 04:13:29;;;;;;;13.48;6.20;;;20.60;91.30;;;;;;5151715;27;20070;-62
2022/08/11 04:16:14;;;;;;;13.38;5.43;;;20.60;91.30;;;;;;5150994;27;20026;-62
2022/08/11 04:19:01;;;;;;;9.75;6.22;;;20.60;91.20;;;;;;5150550;27;20014;-62
2022/08/11 04:22:14;;;;;;;12.70;6.60;;;20.60;91.20;;;;;;5150390;27;20382;-62
2022/08/11 04:25:07;;;;;;;11.87;6.67;;;20.50;91.10;;;;;;5151375;27;20022;-62
2022/08/11 04:27:57;;;;;;;15.27;6.80;;;20.50;91.20;;;;;;5106428;27;20220;-62
2022/08/11 04:31:00;;;;;;;15.13;6.82;;;20.50;91.20;;;;;;5150929;27;20026;-62
2022/08/11 04:33:52;;;;;;;11.88;7.38;;;20.50;91.20;;;;;;5150274;27;20039;-62
2022/08/11 04:39:56;;;;;;;18.35;7.82;;;20.40;91.40;;;;;;5151049;27;20094;-62
2022/08/11 04:46:07;;;;;;;17.27;7.35;;;20.50;91.90;;;;;;5151716;27;20390;-62
2022/08/11 05:01:49;;;;;;;17.00;8.07;;;20.40;92.00;;;;;;5149703;27;20030;-62
2022/08/11 05:07:51;;;;;;;16.85;7.97;;;20.40;92.50;;;;;;5152151;27;20077;-63
2022/08/11 05:10:32;;;;;;;13.50;8.95;;;20.40;92.70;;;;;;5152477;27;20037;-62
2022/08/11 05:36:34;;;;;;;11.68;5.63;;;20.50;93.00;;;;;;5151119;27;20075;-62
2022/08/11 05:58:37;;;;;;;11.15;6.47;;;20.70;93.00;;;;;;5137424;27;20046;-63
2022/08/11 06:01:03;;;;;;;15.20;5.90;;;20.80;92.80;;;;;;5153014;27;20026;-63
2022/08/11 06:03:31;;;;;;;12.27;5.97;;;20.80;92.70;;;;;;5153903;27;20509;-63
2022/08/11 06:05:58;;;;;;;11.05;6.43;;;20.90;92.90;;;;;;5144155;27;20474;-63
2022/08/11 06:08:30;;;;;;;14.00;6.07;;;20.90;92.90;;;;;;5145747;27;20062;-63
2022/08/11 06:11:02;;;;;;;8.25;5.10;;;21.00;92.90;;;;;;5156563;27;20037;-63
2022/08/11 06:13:29;;;;;;;9.82;6.20;;;21.00;92.80;;;;;;5149709;27;20117;-62
2022/08/11 06:15:56;;;;;;;8.68;5.75;;;21.10;92.80;;;;;;5142753;27;20026;-62
2022/08/11 06:18:22;;;;;;;8.40;5.03;;;21.20;92.90;;;;;;5144562;27;20072;-63
2022/08/11 06:20:54;;;;;;;11.07;5.53;;;21.20;92.50;;;;;;5148600;27;20476;-62
2022/08/11 06:23:23;;;;;;;11.50;4.75;;;21.20;92.50;;;;;;5152138;27;20083;-62
2022/08/11 06:25:51;;;;;;;8.73;5.45;;;21.30;92.50;;;;;;5155058;27;20030;-62
2022/08/11 06:28:19;;;;;;;8.20;4.43;;;21.30;92.30;;;;;;5148809;27;20114;-64
2022/08/11 06:30:46;;;;;;;9.75;4.93;;;21.40;92.20;;;;;;5140919;27;20032;-63
2022/08/11 06:33:14;;;;;;;9.40;4.63;;;21.50;92.30;;;;;;5153998;27;20041;-62
2022/08/11 06:36:04;;;;;;;9.85;4.60;;;21.50;92.20;;;;;;5153909;27;20022;-62
2022/08/11 06:38:41;;;;;;;15.40;4.68;;;21.50;92.20;;;;;;5153034;27;20568;-62
2022/08/11 06:41:31;;;;;;;11.20;4.40;;;21.60;92.10;;;;;;5148386;27;20041;-63
2022/08/11 06:44:12;;;;;;;12.13;4.53;;;21.70;92.20;;;;;;5153128;27;20042;-62
2022/08/11 06:46:42;;;;;;;9.60;4.82;;;21.70;92.10;;;;;;5151593;27;20522;-63
2022/08/11 06:52:06;;;;;;;7.75;4.25;;;21.80;91.90;;;;;;5147227;27;20038;-62
2022/08/11 06:54:35;;;;;;;14.20;4.25;;;21.90;91.90;;;;;;5150384;27;20433;-62
2022/08/11 07:02:50;;;;;;;9.23;3.75;;;22.10;91.50;;;;;;5152066;27;20017;-62
2022/08/11 07:05:20;;;;;;;5.93;3.53;;;22.10;91.30;;;;;;5148881;27;20383;-62
2022/08/11 07:16:40;;;;;;;3.97;3.20;;;22.30;90.20;;;;;;5151635;27;20061;-63
2022/08/11 07:31:13;;;;;;;6.30;2.58;;;22.70;89.90;;;;;;5149730;27;20482;-63
2022/08/11 07:33:46;;;;;;;4.53;2.90;;;22.70;89.50;;;;;;5151674;27;20034;-64
2022/08/11 07:36:12;;;;;;;;;;;22.80;89.40;;;;;;5149895;27;20090;-63
2022/08/11 07:38:49;;;;;;;5.88;2.90;;;22.80;89.00;;;;;;5152609;27;19907;-63
2022/08/11 07:41:18;;;;;;;6.88;3.00;;;22.90;88.60;;;;;;5151065;27;20068;-62
2022/08/11 07:43:47;;;;;;;8.23;2.55;;;23.00;89.00;;;;;;5151206;27;20038;-63
2022/08/11 07:54:31;;;;;;;6.82;2.88;;;23.10;87.90;;;;;;5153841;27;20058;-62
2022/08/11 07:56:58;;;;;;;12.00;2.80;;;23.20;87.30;;;;;;5146363;27;20058;-62
2022/08/11 08:18:40;;;;;;;5.10;2.10;;;23.60;84.10;;;;;;5151279;27;20030;-62
2022/08/11 08:21:14;;;;;;;3.90;1.90;;;23.70;83.40;;;;;;5149967;27;20023;-62
2022/08/11 08:23:44;;;;;;;4.97;1.85;;;23.70;82.90;;;;;;5148585;27;20077;-62
2022/08/11 08:31:47;;;;;;;5.20;1.80;;;23.90;81.90;;;;;;5145269;27;20545;-62
2022/08/11 08:34:14;;;;;;;2.90;1.70;;;24.00;81.70;;;;;;5145048;27;20018;-63
2022/08/11 08:36:46;;;;;;;4.13;1.75;;;24.00;80.60;;;;;;5148357;27;20387;-63
2022/08/11 08:39:13;;;;;;;6.00;1.90;;;24.10;80.30;;;;;;5145705;27;20470;-63
2022/08/11 08:41:39;;;;;;;3.38;1.88;;;24.20;79.90;;;;;;5149498;27;20477;-63
2022/08/11 08:44:11;;;;;;;3.00;1.90;;;24.20;79.80;;;;;;5149132;27;20039;-63
2022/08/11 08:46:43;;;;;;;5.22;1.63;;;24.30;79.80;;;;;;5148868;27;20043;-63
2022/08/11 08:49:24;;;;;;;4.90;1.90;;;24.40;79.00;;;;;;5149341;27;20027;-63
2022/08/11 08:51:53;;;;;;;6.45;2.00;;;24.40;78.90;;;;;;5146615;27;20503;-62
2022/08/11 08:54:26;;;;;;;7.10;1.73;;;24.40;78.70;;;;;;5148929;27;20025;-62
2022/08/11 08:56:55;;;;;;;6.35;1.60;;;24.60;77.80;;;;;;5145203;27;20058;-62
2022/08/11 08:59:24;;;;;;;9.27;1.50;;;24.60;77.10;;;;;;5146904;27;20075;-63
2022/08/11 09:01:56;;;;;;;3.35;1.48;;;24.60;76.70;;;;;;5147252;27;20378;-62
2022/08/11 09:04:22;;;;;;;2.22;1.48;;;24.70;77.00;;;;;;5150265;27;20023;-62
2022/08/11 09:06:49;;;;;;;7.45;1.70;;;24.70;76.70;;;;;;5149894;27;20054;-63
2022/08/11 09:09:18;;;;;;;3.13;1.67;;;24.80;76.50;;;;;;5150031;27;20123;-63
2022/08/11 09:11:49;;;;;;;4.80;1.90;;;24.90;75.80;;;;;;5150272;27;20034;-63
2022/08/11 09:14:16;;;;;;;4.03;1.98;;;24.90;76.30;;;;;;5151997;27;20042;-62
2022/08/11 09:16:43;;;;;;;5.10;1.60;;;25.00;76.00;;;;;;5143587;27;20046;-63
2022/08/11 09:19:12;;;;;;;2.60;1.60;;;25.00;76.60;;;;;;5129308;27;20103;-62
2022/08/11 09:21:42;;;;;;;3.33;1.70;;;25.10;77.00;;;;;;5147486;27;20080;-62
2022/08/11 09:26:58;;;;;;;8.93;1.77;;;25.20;78.40;;;;;;5144895;27;20151;-62
2022/08/11 09:29:27;;;;;;;2.17;1.20;;;25.20;78.30;;;;;;5146140;27;20038;-62
2022/08/11 09:31:54;;;;;;;10.00;1.90;;;25.30;77.40;;;;;;5132935;27;20041;-63
2022/08/11 09:34:21;;;;;;;3.17;1.80;;;25.30;77.00;;;;;;5149385;27;20034;-62
2022/08/11 09:44:45;;;;;;;3.47;1.92;;;25.50;76.90;;;;;;5151808;27;20025;-62
2022/08/11 09:45:16;;;;;;;12.50;1.40;;;25.50;77.20;;;;;;5138262;27;20504;-63
2022/08/11 09:47:42;;;;;;;;;;;25.60;76.90;;;;;;5144045;27;20023;-62
2022/08/11 09:50:09;;;;;;;9.52;1.42;;;25.60;79.50;;;;;;5132797;27;19915;-62
2022/08/11 09:52:39;;;;;;;2.45;1.15;;;25.60;78.50;;;;;;5151039;27;20043;-62
2022/08/11 09:55:11;;;;;;;6.28;1.52;;;25.70;77.60;;;;;;5149982;27;20011;-62
2022/08/11 10:00:36;;;;;;;3.22;1.30;;;25.70;77.60;;;;;;5135783;27;20024;-62
2022/08/11 10:03:06;;;;;;;1.42;1.10;;;25.80;76.70;;;;;;5148596;27;20489;-62
2022/08/11 10:08:18;;;;;;;4.10;1.30;;;25.80;77.00;;;;;;5152836;27;20390;-63
2022/08/11 10:10:46;;;;;;;3.65;1.00;;;25.90;76.90;;;;;;5151298;27;20039;-63
2022/08/11 10:13:25;;;;;;;8.82;1.83;;;25.90;74.60;;;;;;5153707;27;20473;-64
2022/08/11 10:16:00;;;;;;;1.60;1.08;;;26.00;73.90;;;;;;5150124;27;20482;-63
2022/08/11 10:18:41;;;;;;;4.68;0.88;;;26.00;73.80;;;;;;5150353;27;20027;-63
2022/08/11 10:21:13;;;;;;;2.15;0.90;;;26.00;74.50;;;;;;5150671;27;20076;-63
2022/08/11 10:34:46;;;;;;;1.50;0.88;;;26.30;71.80;;;;;;5155780;27;20030;-63
2022/08/11 10:37:12;;;;;;;2.50;1.10;;;26.30;72.30;;;;;;5141624;27;20039;-63
2022/08/11 10:39:39;;;;;;;3.08;1.70;;;26.40;72.80;;;;;;5143884;27;20027;-63
2022/08/11 10:44:52;;;;;;;2.33;1.10;;;26.50;71.40;;;;;;5136634;27;20075;-63
2022/08/11 10:47:34;;;;;;;5.00;1.58;;;26.50;69.60;;;;;;5151211;27;20030;-64
2022/08/11 10:58:49;;;;;;;3.17;1.30;;;26.80;68.20;;;;;;5143306;27;20077;-63
2022/08/11 11:01:21;;;;;;;5.25;1.20;;;26.90;67.90;;;;;;5148466;27;20023;-63
2022/08/11 11:03:53;;;;;;;1.10;1.00;;;26.90;66.70;;;;;;5146458;27;20026;-63
2022/08/11 11:06:24;;;;;;;2.85;1.20;;;27.00;68.50;;;;;;5144210;27;20403;-62
2022/08/11 11:09:11;;;;;;;4.40;1.33;;;27.10;68.40;;;;;;5142995;27;20034;-63
2022/08/11 11:19:53;;;;;;;2.92;1.08;;;27.30;64.50;;;;;;5143789;27;20027;-63
2022/08/11 11:22:39;;;;;;;3.22;1.25;;;27.40;66.60;;;;;;5151565;27;20039;-63
2022/08/11 11:25:29;;;;;;;3.88;1.40;;;27.40;66.70;;;;;;5142242;27;20027;-63
2022/08/11 11:28:10;;;;;;;1.60;1.02;;;27.40;66.00;;;;;;5141622;27;20065;-63
2022/08/11 11:31:14;;;;;;;1.27;1.17;;;27.50;67.30;;;;;;5142162;27;20033;-63
2022/08/11 11:34:21;;;;;;;1.77;1.20;;;27.50;68.00;;;;;;5093557;27;20054;-63
2022/08/11 11:36:49;;;;;;;4.40;1.25;;;27.50;66.20;;;;;;5144822;27;20409;-63
2022/08/11 11:39:20;;;;;;;2.13;1.05;;;27.60;67.20;;;;;;5139137;27;20027;-63
2022/08/11 11:41:48;;;;;;;8.65;1.40;;;27.60;67.30;;;;;;5142728;27;20027;-63
2022/08/11 11:44:14;;;;;;;1.33;1.10;;;27.70;68.30;;;;;;5152290;27;20026;-63
2022/08/11 11:46:44;;;;;;;3.45;1.20;;;27.60;67.30;;;;;;5152463;27;20060;-63
2022/08/11 11:49:11;;;;;;;2.10;1.40;;;27.70;67.30;;;;;;5150300;27;20162;-63
2022/08/11 11:51:37;;;;;;;2.85;1.75;;;27.70;66.80;;;;;;5153578;27;20042;-63
2022/08/11 11:54:04;;;;;;;2.15;1.10;;;27.70;66.60;;;;;;5151955;27;20041;-63
2022/08/11 11:56:30;;;;;;;5.90;1.30;;;27.70;66.10;;;;;;5141335;27;20534;-63
2022/08/11 12:01:44;;;;;;;3.65;1.42;;;27.80;67.10;;;;;;5150958;27;20058;-63
2022/08/11 12:04:14;;;;;;;3.08;1.25;;;27.80;66.80;;;;;;5133979;27;20091;-63
2022/08/11 12:06:41;;;;;;;2.47;1.23;;;27.80;66.20;;;;;;5135665;27;20463;-63
2022/08/11 12:09:06;;;;;;;6.18;2.03;;;27.90;67.40;;;;;;5144653;27;20133;-63
2022/08/11 12:14:19;;;;;;;2.35;1.70;;;27.90;65.80;;;;;;5142039;27;20105;-63
2022/08/11 12:16:47;;;;;;;6.30;1.42;;;27.90;65.90;;;;;;5153973;27;20018;-64
2022/08/11 12:19:20;;;;;;;5.45;1.38;;;28.00;66.10;;;;;;5141551;27;20133;-64
2022/08/11 12:27:21;;;;;;;2.15;1.27;;;28.10;66.10;;;;;;5150882;27;20023;-65
2022/08/11 12:29:54;;;;;;;1.30;1.10;;;28.20;66.80;;;;;;5133872;27;20575;-64
2022/08/11 12:32:22;;;;;;;5.00;1.20;;;28.10;66.60;;;;;;5133450;27;20394;-64
2022/08/11 12:34:48;;;;;;;15.88;1.85;;;28.20;66.00;;;;;;5153748;27;20038;-63
2022/08/11 12:37:19;;;;;;;6.50;1.27;;;28.10;64.80;;;;;;5153874;27;20030;-63
2022/08/11 12:45:28;;;;;;;20.17;1.52;;;28.20;68.40;;;;;;5152789;27;20046;-64
2022/08/11 12:53:28;;;;;;;2.58;1.40;;;28.30;67.60;;;;;;5152660;27;20410;-63
2022/08/11 12:58:43;;;;;;;5.00;1.83;;;28.30;68.20;;;;;;5148739;27;20031;-63
2022/08/11 13:06:41;;;;;;;9.52;1.65;;;28.40;67.70;;;;;;5153451;27;20098;-64
2022/08/11 13:09:10;;;;;;;3.42;1.30;;;28.40;69.10;;;;;;5142785;27;20039;-64
2022/08/11 13:14:21;;;;;;;5.53;1.30;;;28.50;69.40;;;;;;5147029;27;20035;-63
2022/08/11 13:19:33;;;;;;;6.53;1.48;;;28.50;67.80;;;;;;5147299;27;20363;-64
2022/08/11 13:22:01;;;;;;;3.05;1.20;;;28.50;67.40;;;;;;5144595;27;20470;-63
2022/08/11 13:24:27;;;;;;;5.00;1.50;;;28.50;67.40;;;;;;5139589;27;20026;-64
2022/08/11 13:26:53;;;;;;;2.80;1.33;;;28.60;69.30;;;;;;5142809;27;20117;-63
2022/08/11 13:29:22;;;;;;;5.13;1.52;;;28.60;69.80;;;;;;5134783;27;20087;-63
2022/08/11 13:31:48;;;;;;;4.40;1.35;;;28.60;70.90;;;;;;5144390;27;20049;-63
2022/08/11 13:34:16;;;;;;;2.88;1.55;;;28.60;70.70;;;;;;5149654;27;20034;-63
2022/08/11 13:36:43;;;;;;;4.10;1.08;;;28.60;70.00;;;;;;5149476;27;20026;-63
2022/08/11 13:39:09;;;;;;;5.13;1.17;;;28.60;71.00;;;;;;5149686;27;20019;-63
2022/08/11 13:41:40;;;;;;;3.15;1.50;;;28.60;71.30;;;;;;5137765;27;20023;-63
2022/08/11 13:44:07;;;;;;;7.80;1.50;;;28.60;71.10;;;;;;5154687;27;20121;-66
2022/08/11 13:46:34;;;;;;;2.10;1.17;;;28.50;69.80;;;;;;5156728;27;20049;-63
2022/08/11 13:49:00;;;;;;;3.10;1.40;;;28.50;70.50;;;;;;5139491;27;20035;-63
2022/08/11 13:51:31;;;;;;;2.13;1.35;;;28.50;70.00;;;;;;5150415;27;20409;-63
2022/08/11 13:54:05;;;;;;;4.03;1.60;;;28.50;70.50;;;;;;5153461;27;20031;-63
2022/08/11 13:56:32;;;;;;;4.25;1.40;;;28.50;69.40;;;;;;5157139;27;20041;-63
2022/08/11 13:59:01;;;;;;;2.08;1.27;;;28.50;69.50;;;;;;5138768;27;20102;-63
2022/08/11 14:01:31;;;;;;;7.38;1.10;;;28.50;69.60;;;;;;5152831;27;20419;-63
2022/08/11 14:04:08;;;;;;;1.30;1.05;;;28.40;69.90;;;;;;5156902;27;20382;-63
2022/08/11 14:06:37;;;;;;;2.67;1.40;;;28.50;70.60;;;;;;5155734;27;20465;-63
2022/08/11 14:09:07;;;;;;;3.78;1.15;;;28.50;69.90;;;;;;5147805;27;20038;-63
2022/08/11 14:14:32;;;;;;;13.52;1.40;;;28.50;69.30;;;;;;5140946;27;20049;-63
2022/08/11 14:17:03;;;;;;;6.32;1.10;;;28.50;69.90;;;;;;5147184;27;20037;-63
2022/08/11 14:19:33;;;;;;;3.20;1.33;;;28.50;69.20;;;;;;5156588;27;20058;-63
2022/08/11 14:22:07;;;;;;;4.40;1.30;;;28.50;69.80;;;;;;5155721;27;20030;-63
2022/08/11 14:24:40;;;;;;;1.48;1.17;;;28.50;69.70;;;;;;5156854;27;20023;-63
2022/08/11 14:27:07;;;;;;;3.40;1.27;;;28.50;69.30;;;;;;5136908;27;20031;-63
2022/08/11 14:29:37;;;;;;;2.35;1.23;;;28.40;69.70;;;;;;5151625;27;20078;-63
2022/08/11 14:32:06;;;;;;;1.55;1.17;;;28.50;68.70;;;;;;5135920;27;20031;-63
2022/08/11 14:34:35;;;;;;;3.78;1.30;;;28.50;69.00;;;;;;5153540;27;20085;-63
2022/08/11 14:37:09;;;;;;;6.07;1.40;;;28.50;69.10;;;;;;5156929;27;20031;-63
2022/08/11 14:39:42;;;;;;;4.57;1.45;;;28.50;68.70;;;;;;5148636;27;20022;-63
2022/08/11 14:47:50;;;;;;;2.90;1.13;;;28.60;69.40;;;;;;5124524;27;20031;-63
2022/08/11 14:50:22;;;;;;;5.80;1.35;;;28.60;69.80;;;;;;5154162;27;20061;-63
2022/08/11 14:52:53;;;;;;;3.38;1.10;;;28.60;68.80;;;;;;5150386;27;20042;-63
2022/08/11 14:58:09;;;;;;;5.32;1.40;;;28.70;69.00;;;;;;5148169;27;20075;-63
2022/08/11 15:00:37;;;;;;;3.70;1.13;;;28.70;68.90;;;;;;5145803;27;20058;-63
2022/08/11 15:03:10;;;;;;;3.45;1.50;;;28.80;68.10;;;;;;5142148;27;20031;-63
2022/08/11 15:05:44;;;;;;;3.40;1.10;;;28.80;68.10;;;;;;5151646;27;20030;-63
2022/08/11 15:08:16;;;;;;;5.72;1.50;;;28.80;68.10;;;;;;5155780;27;20035;-64
2022/08/11 15:10:42;;;;;;;5.18;1.35;;;28.80;69.10;;;;;;5146305;27;20022;-63
2022/08/11 15:13:09;;;;;;;3.40;1.55;;;28.80;69.80;;;;;;5155417;27;20047;-64
2022/08/11 15:18:23;;;;;;;3.42;1.40;;;28.80;68.50;;;;;;5154655;27;20034;-65
2022/08/11 15:37:44;;;;;;;5.75;1.42;;;28.80;69.20;;;;;;5147599;27;20074;-65
2022/08/11 15:46:19;;;;;;;6.50;1.60;;;28.90;70.30;;;;;;5151695;27;20035;-64
2022/08/11 15:48:55;;;;;;;6.97;1.70;;;28.80;69.40;;;;;;5148663;27;20537;-65
2022/08/11 15:51:34;;;;;;;10.88;1.77;;;28.80;69.50;;;;;;5142536;27;20188;-65
2022/08/11 15:54:07;;;;;;;2.60;1.30;;;28.80;69.70;;;;;;5149740;27;20038;-65
2022/08/11 15:56:35;;;;;;;3.90;1.67;;;28.80;69.80;;;;;;5152242;27;20044;-65
2022/08/11 16:04:37;;;;;;;2.05;1.42;;;28.80;70.20;;;;;;5150826;27;20465;-63
2022/08/11 16:07:10;;;;;;;17.25;1.30;;;28.80;69.70;;;;;;5150331;27;20034;-64
2022/08/11 16:10:08;;;;;;;1.77;1.20;;;28.70;70.50;;;;;;5153770;27;20078;-64
2022/08/11 16:18:19;;;;;;;1.83;1.60;;;28.80;70.50;;;;;;5140709;27;20034;-65
2022/08/11 16:20:49;;;;;;;4.97;1.70;;;28.80;70.50;;;;;;5142974;27;20035;-64
2022/08/11 16:23:16;;;;;;;6.93;1.83;;;28.80;70.20;;;;;;5147387;27;20026;-64
2022/08/11 16:25:43;;;;;;;3.80;1.63;;;28.80;70.50;;;;;;5148784;27;20045;-64
2022/08/11 16:28:11;;;;;;;5.07;1.40;;;28.80;70.00;;;;;;5148858;27;20031;-65
2022/08/11 16:30:40;;;;;;;3.08;1.50;;;28.80;70.30;;;;;;5150116;27;20034;-64
2022/08/11 16:33:07;;;;;;;4.85;1.58;;;28.80;69.90;;;;;;5152690;27;20079;-64
2022/08/11 16:38:34;;;;;;;3.33;1.60;;;28.80;70.00;;;;;;5144219;27;20512;-64
2022/08/11 16:41:09;;;;;;;5.43;1.35;;;28.90;70.50;;;;;;5148330;27;20076;-64
2022/08/11 16:49:09;;;;;;;3.63;1.40;;;29.00;70.70;;;;;;5136985;27;20026;-64
2022/08/11 16:51:35;;;;;;;13.23;2.17;;;29.00;70.70;;;;;;5153322;27;20039;-65
2022/08/11 16:54:01;;;;;;;7.88;1.70;;;29.00;70.60;;;;;;5149381;27;20042;-64
2022/08/11 16:56:49;;;;;;;5.63;1.45;;;29.10;70.30;;;;;;5151053;27;20023;-64
2022/08/11 16:59:35;;;;;;;2.53;1.20;;;29.10;70.70;;;;;;5147298;27;20277;-65
2022/08/11 17:02:11;;;;;;;4.35;1.50;;;29.20;70.80;;;;;;5146767;27;20037;-65
2022/08/11 17:13:22;;;;;;;3.33;1.30;;;29.20;69.50;;;;;;5154434;27;20042;-64
2022/08/11 17:16:05;;;;;;;4.18;1.50;;;29.30;70.10;;;;;;5156208;27;20179;-64
2022/08/11 17:18:51;;;;;;;8.25;1.55;;;29.30;69.50;;;;;;5146156;27;20106;-64
2022/08/11 17:21:26;;;;;;;4.05;1.50;;;29.30;69.70;;;;;;5151433;27;20027;-64
2022/08/11 17:24:13;;;;;;;6.35;1.50;;;29.40;69.90;;;;;;5150751;27;20057;-64
2022/08/11 17:26:55;;;;;;;2.63;1.50;;;29.50;69.80;;;;;;5150048;27;20063;-64
2022/08/11 17:29:33;;;;;;;7.55;1.50;;;29.50;69.50;;;;;;5141578;27;20034;-64
2022/08/11 17:37:36;;;;;;;8.48;2.05;;;29.60;70.80;;;;;;5149821;27;20022;-64
2022/08/11 17:40:05;;;;;;;3.30;1.35;;;29.70;70.10;;;;;;5152700;27;20026;-64
2022/08/11 17:50:52;;;;;;;3.72;1.40;;;29.80;69.80;;;;;;5153563;27;20041;-64
2022/08/11 18:03:27;;;;;;;6.85;1.60;;;30.00;69.80;;;;;;5102616;28;20032;-66
2022/08/11 18:04:45;;;;;;;4.15;1.48;;;30.00;69.30;;;;;;5136720;27;20035;-64
